createdAt,value
2022-09-17T00:00:22.332Z,16.69
2022-09-17T00:02:55.664Z,16.72
2022-09-17T00:05:23.592Z,16.72
2022-09-17T00:07:51.741Z,16.71
2022-09-17T00:10:19.582Z,16.73
2022-09-17T00:12:46.933Z,16.75
2022-09-17T00:15:13.656Z,16.74
2022-09-17T00:17:41.589Z,16.75
2022-09-17T00:20:10.506Z,16.77
2022-09-17T00:22:39.958Z,16.74
2022-09-17T00:25:08.549Z,16.76
2022-09-17T00:27:35.314Z,16.77
2022-09-17T00:30:02.287Z,16.78
2022-09-17T00:32:29.024Z,16.77
2022-09-17T00:34:55.817Z,16.80
2022-09-17T00:37:22.575Z,16.81
2022-09-17T00:39:49.344Z,16.81
2022-09-17T00:42:17.084Z,16.84
2022-09-17T00:44:50.714Z,16.82
2022-09-17T00:47:29.087Z,16.83
2022-09-17T00:49:59.748Z,16.80
2022-09-17T00:52:31.647Z,16.77
2022-09-17T00:55:03.563Z,16.73
2022-09-17T00:57:31.398Z,16.71
2022-09-17T00:59:58.186Z,16.70
2022-09-17T01:02:25.279Z,16.69
2022-09-17T01:04:52.072Z,16.69
2022-09-17T01:07:27.565Z,16.69
2022-09-17T01:10:18.498Z,16.67
2022-09-17T01:13:07.376Z,16.69
2022-09-17T01:15:54.478Z,16.68
2022-09-17T01:18:24.965Z,16.67
2022-09-17T01:21:01.606Z,16.67
2022-09-17T01:23:47.238Z,16.65
2022-09-17T01:26:36.399Z,16.63
2022-09-17T01:29:43.213Z,16.58
2022-09-17T01:32:12.680Z,16.53
2022-09-17T01:34:55.603Z,16.52
2022-09-17T01:37:30.911Z,16.51
2022-09-17T01:40:08.437Z,16.45
2022-09-17T01:42:59.612Z,16.40
2022-09-17T01:45:38.867Z,16.35
2022-09-17T01:48:18.616Z,16.32
2022-09-17T01:51:01.094Z,16.30
2022-09-17T01:53:36.738Z,16.26
2022-09-17T01:56:03.715Z,16.24
2022-09-17T01:58:35.447Z,16.22
2022-09-17T02:01:05.063Z,16.23
2022-09-17T02:03:58.159Z,16.24
2022-09-17T02:06:29.888Z,16.22
2022-09-17T02:09:01.071Z,16.24
2022-09-17T02:11:28.299Z,16.23
2022-09-17T02:14:08.286Z,16.24
2022-09-17T02:16:36.696Z,16.23
2022-09-17T02:19:10.596Z,16.21
2022-09-17T02:22:03.515Z,16.20
2022-09-17T02:25:02.452Z,16.19
2022-09-17T02:27:51.071Z,16.18
2022-09-17T02:30:17.949Z,16.16
2022-09-17T02:32:44.940Z,16.15
2022-09-17T02:35:13.843Z,16.13
2022-09-17T02:37:41.832Z,16.13
2022-09-17T02:40:09.598Z,16.12
2022-09-17T02:42:58.898Z,16.09
2022-09-17T02:45:34.880Z,16.05
2022-09-17T02:48:39.096Z,16.05
2022-09-17T02:51:41.100Z,15.99
2022-09-17T02:54:18.373Z,15.98
2022-09-17T02:57:05.332Z,15.98
2022-09-17T03:00:02.882Z,15.99
2022-09-17T03:02:39.829Z,15.98
2022-09-17T03:05:07.793Z,15.96
2022-09-17T03:07:34.569Z,15.94
2022-09-17T03:10:01.313Z,15.93
2022-09-17T03:12:28.029Z,15.91
2022-09-17T03:14:54.811Z,15.91
2022-09-17T03:17:21.542Z,15.88
2022-09-17T03:19:48.288Z,15.87
2022-09-17T03:22:15.300Z,15.83
2022-09-17T03:24:42.142Z,15.81
2022-09-17T03:27:08.900Z,15.81
2022-09-17T03:29:35.714Z,15.79
2022-09-17T03:32:02.518Z,15.77
2022-09-17T03:34:29.230Z,15.78
2022-09-17T03:36:55.947Z,15.79
2022-09-17T03:39:22.690Z,15.76
2022-09-17T03:41:49.422Z,15.79
2022-09-17T03:44:18.501Z,15.80
2022-09-17T03:46:45.705Z,15.79
2022-09-17T03:49:12.465Z,15.79
2022-09-17T03:51:39.186Z,15.80
2022-09-17T03:54:06.600Z,15.80
2022-09-17T03:56:33.565Z,15.81
2022-09-17T03:59:00.803Z,15.81
2022-09-17T04:01:28.101Z,15.80
2022-09-17T04:03:55.333Z,15.79
2022-09-17T04:06:22.147Z,15.78
2022-09-17T04:08:48.894Z,15.74
2022-09-17T04:11:15.809Z,15.73
2022-09-17T04:13:42.544Z,15.71
2022-09-17T04:16:09.396Z,15.68
2022-09-17T04:18:36.199Z,15.65
2022-09-17T04:21:03.650Z,15.64
2022-09-17T04:23:30.415Z,15.62
2022-09-17T04:25:57.151Z,15.58
2022-09-17T04:28:23.912Z,15.57
2022-09-17T04:30:50.793Z,15.54
2022-09-17T04:33:17.623Z,15.55
2022-09-17T04:35:45.176Z,15.53
2022-09-17T04:38:13.761Z,15.55
2022-09-17T04:40:42.242Z,15.55
2022-09-17T04:43:10.502Z,15.58
2022-09-17T04:45:37.270Z,15.57
2022-09-17T04:48:04.343Z,15.58
2022-09-17T04:50:31.214Z,15.58
2022-09-17T04:52:57.946Z,15.57
2022-09-17T04:55:25.370Z,15.57
2022-09-17T04:57:53.387Z,15.53
2022-09-17T05:00:21.275Z,15.54
2022-09-17T05:02:49.908Z,15.54
2022-09-17T05:05:18.161Z,15.52
2022-09-17T05:07:44.905Z,15.52
2022-09-17T05:10:12.702Z,15.51
2022-09-17T05:12:39.482Z,15.51
2022-09-17T05:15:06.888Z,15.51
2022-09-17T05:17:33.614Z,15.50
2022-09-17T05:20:00.352Z,15.50
2022-09-17T05:22:27.072Z,15.50
2022-09-17T05:24:53.863Z,15.52
2022-09-17T05:27:20.710Z,15.51
2022-09-17T05:29:47.430Z,15.51
2022-09-17T05:32:14.167Z,15.52
2022-09-17T05:34:41.458Z,15.53
2022-09-17T05:37:11.629Z,15.54
2022-09-17T05:39:38.434Z,15.57
2022-09-17T05:42:05.302Z,15.57
2022-09-17T05:44:32.120Z,15.61
2022-09-17T05:46:59.246Z,15.63
2022-09-17T05:49:26.099Z,15.67
2022-09-17T05:51:52.817Z,15.69
2022-09-17T05:54:19.617Z,15.72
2022-09-17T05:56:46.417Z,15.74
2022-09-17T05:59:13.197Z,15.77
2022-09-17T06:01:39.993Z,15.80
2022-09-17T06:04:06.738Z,15.83
2022-09-17T06:06:33.522Z,15.84
2022-09-17T06:09:00.522Z,15.89
2022-09-17T06:11:27.328Z,15.90
2022-09-17T06:13:54.811Z,15.92
2022-09-17T06:16:22.894Z,15.95
2022-09-17T06:18:55.604Z,15.96
2022-09-17T06:21:22.884Z,15.98
2022-09-17T06:23:50.477Z,16.02
2022-09-17T06:26:17.643Z,16.02
2022-09-17T06:28:44.739Z,16.04
2022-09-17T06:31:12.622Z,16.03
2022-09-17T06:33:39.615Z,16.03
2022-09-17T06:36:14.141Z,16.04
2022-09-17T06:38:41.969Z,16.04
2022-09-17T06:41:08.849Z,16.07
2022-09-17T06:43:35.622Z,16.09
2022-09-17T06:46:05.974Z,16.12
2022-09-17T06:48:35.311Z,16.13
2022-09-17T06:51:06.516Z,16.17
2022-09-17T06:53:33.731Z,16.23
2022-09-17T06:56:05.883Z,16.25
2022-09-17T06:58:34.033Z,16.24
2022-09-17T07:01:01.543Z,16.25
2022-09-17T07:03:29.068Z,16.31
2022-09-17T07:05:55.853Z,16.33
2022-09-17T07:08:22.807Z,16.35
2022-09-17T07:10:49.791Z,16.36
2022-09-17T07:13:16.500Z,16.40
2022-09-17T07:15:43.319Z,16.47
2022-09-17T07:18:11.521Z,16.52
2022-09-17T07:20:39.142Z,16.59
2022-09-17T07:23:05.878Z,16.82
2022-09-17T07:25:32.600Z,17.21
2022-09-17T07:27:59.701Z,17.60
2022-09-17T07:30:26.534Z,18.00
2022-09-17T07:32:53.262Z,18.44
2022-09-17T07:35:19.977Z,18.77
2022-09-17T07:37:47.496Z,19.17
2022-09-17T07:40:14.309Z,19.60
2022-09-17T07:42:41.098Z,19.96
2022-09-17T07:45:08.253Z,20.15
2022-09-17T07:47:39.989Z,20.19
2022-09-17T07:50:07.959Z,20.16
2022-09-17T07:52:34.706Z,20.11
2022-09-17T07:55:01.517Z,20.17
2022-09-17T07:57:28.295Z,20.28
2022-09-17T07:59:55.076Z,20.42
2022-09-17T08:02:24.311Z,20.61
2022-09-17T08:04:51.451Z,20.79
2022-09-17T08:07:18.421Z,20.90
2022-09-17T08:09:45.138Z,20.93
2022-09-17T08:12:12.006Z,21.00
2022-09-17T08:14:38.832Z,21.05
2022-09-17T08:17:08.095Z,21.03
2022-09-17T08:19:34.891Z,20.96
2022-09-17T08:22:01.674Z,20.91
2022-09-17T08:24:28.449Z,20.84
2022-09-17T08:26:55.238Z,20.61
2022-09-17T08:29:22.012Z,20.37
2022-09-17T08:31:49.024Z,20.17
2022-09-17T08:34:15.804Z,20.07
2022-09-17T08:36:42.529Z,20.00
2022-09-17T08:39:11.057Z,19.96
2022-09-17T08:41:52.621Z,19.89
2022-09-17T08:44:25.612Z,19.80
2022-09-17T08:46:54.908Z,19.67
2022-09-17T08:49:37.160Z,19.54
2022-09-17T08:52:33.894Z,19.45
2022-09-17T08:55:13.230Z,19.40
2022-09-17T08:57:45.345Z,19.35
2022-09-17T09:00:22.776Z,19.33
2022-09-17T09:03:13.822Z,19.33
2022-09-17T09:05:46.362Z,19.30
2022-09-17T09:08:44.009Z,19.38
2022-09-17T09:11:16.504Z,19.45
2022-09-17T09:13:45.598Z,19.49
2022-09-17T09:16:25.058Z,19.49
2022-09-17T09:18:54.820Z,19.47
2022-09-17T09:24:42.449Z,19.38
2022-09-17T09:27:19.328Z,19.32
2022-09-17T09:30:08.974Z,19.26
2022-09-17T09:32:54.005Z,19.20
2022-09-17T09:35:32.939Z,19.23
2022-09-17T09:38:04.746Z,19.29
2022-09-17T09:40:37.246Z,19.41
2022-09-17T09:43:15.582Z,19.45
2022-09-17T09:46:03.785Z,19.50
2022-09-17T09:48:49.069Z,19.48
2022-09-17T09:51:33.036Z,19.43
2022-09-17T09:54:41.199Z,19.44
2022-09-17T09:57:12.292Z,19.41
2022-09-17T09:59:41.314Z,19.42
2022-09-17T10:02:08.763Z,19.45
2022-09-17T10:04:35.730Z,19.50
2022-09-17T10:07:07.704Z,19.53
2022-09-17T10:09:37.133Z,19.55
2022-09-17T10:12:10.868Z,19.59
2022-09-17T10:14:39.287Z,19.63
2022-09-17T10:17:14.465Z,19.69
2022-09-17T10:19:42.046Z,19.77
2022-09-17T10:22:20.059Z,19.81
2022-09-17T10:24:47.477Z,19.83
2022-09-17T10:27:16.990Z,19.87
2022-09-17T10:29:45.911Z,19.88
2022-09-17T10:32:20.778Z,19.94
2022-09-17T10:35:24.172Z,20.02
2022-09-17T10:37:54.401Z,20.08
2022-09-17T10:40:21.086Z,20.16
2022-09-17T10:42:49.441Z,20.26
2022-09-17T10:45:30.342Z,20.40
2022-09-17T10:47:58.373Z,20.52
2022-09-17T10:50:28.828Z,20.64
2022-09-17T10:52:57.926Z,20.65
2022-09-17T10:55:35.783Z,20.62
2022-09-17T10:58:08.344Z,20.52
2022-09-17T11:00:45.165Z,20.42
2022-09-17T11:03:30.314Z,20.33
2022-09-17T11:06:27.076Z,20.13
2022-09-17T11:09:12.633Z,19.92
2022-09-17T11:11:40.239Z,19.81
2022-09-17T11:14:15.948Z,19.78
2022-09-17T11:17:08.018Z,19.82
2022-09-17T11:19:45.511Z,19.85
2022-09-17T11:22:20.080Z,19.78
2022-09-17T11:25:06.708Z,19.44
2022-09-17T11:27:33.332Z,19.06
2022-09-17T11:30:15.807Z,18.54
2022-09-17T11:32:54.776Z,18.08
2022-09-17T11:35:29.813Z,17.76
2022-09-17T11:38:03.946Z,17.54
2022-09-17T11:41:04.623Z,17.30
2022-09-17T11:44:03.857Z,17.10
2022-09-17T11:46:53.974Z,16.98
2022-09-17T11:49:56.228Z,16.90
2022-09-17T11:52:24.687Z,16.81
2022-09-17T11:55:42.886Z,16.67
2022-09-17T11:58:34.701Z,16.54
2022-09-17T12:01:18.967Z,16.49
2022-09-17T12:04:11.423Z,16.41
2022-09-17T12:06:58.339Z,16.33
2022-09-17T12:09:28.572Z,16.28
2022-09-17T12:12:31.739Z,16.20
2022-09-17T12:15:47.764Z,16.06
2022-09-17T12:18:42.665Z,15.90
2022-09-17T12:21:11.056Z,15.79
2022-09-17T12:23:43.522Z,15.70
2022-09-17T12:26:19.138Z,15.64
2022-09-17T12:28:56.674Z,15.59
2022-09-17T12:31:46.166Z,15.55
2022-09-17T12:34:25.920Z,15.49
2022-09-17T12:37:04.342Z,15.49
2022-09-17T12:39:40.258Z,15.47
2022-09-17T12:42:46.039Z,15.48
2022-09-17T12:45:35.170Z,15.51
2022-09-17T12:48:14.445Z,15.55
2022-09-17T12:50:53.320Z,15.60
2022-09-17T12:53:31.966Z,15.62
2022-09-17T12:56:14.877Z,15.64
2022-09-17T12:58:56.848Z,15.68
2022-09-17T13:01:42.514Z,15.67
2022-09-17T13:04:38.128Z,15.65
2022-09-17T13:07:41.153Z,15.60
2022-09-17T13:10:43.206Z,15.56
2022-09-17T13:13:43.047Z,15.52
2022-09-17T13:16:19.960Z,15.52
2022-09-17T13:19:17.628Z,15.52
2022-09-17T13:22:00.245Z,15.48
2022-09-17T13:24:30.936Z,15.47
2022-09-17T13:26:59.186Z,15.48
2022-09-17T13:29:44.659Z,15.48
2022-09-17T13:32:33.011Z,15.51
2022-09-17T13:35:12.026Z,15.54
2022-09-17T13:37:54.141Z,15.59
2022-09-17T13:40:23.354Z,15.65
2022-09-17T13:42:57.930Z,15.71
2022-09-17T13:45:25.762Z,15.76
2022-09-17T13:47:53.485Z,15.80
2022-09-17T13:50:38.095Z,15.83
2022-09-17T13:53:16.931Z,15.89
2022-09-17T13:55:51.777Z,15.89
2022-09-17T13:58:18.643Z,15.88
2022-09-17T14:01:05.437Z,15.85
2022-09-17T14:03:34.172Z,15.83
2022-09-17T14:06:11.031Z,15.80
2022-09-17T14:08:43.659Z,15.80
2022-09-17T14:11:22.420Z,15.80
2022-09-17T14:14:04.382Z,15.79
2022-09-17T14:16:37.159Z,15.82
2022-09-17T14:19:16.467Z,15.87
2022-09-17T14:21:46.289Z,15.90
2022-09-17T14:24:23.360Z,15.94
2022-09-17T14:27:02.159Z,15.98
2022-09-17T14:30:16.039Z,16.03
2022-09-17T14:32:46.640Z,16.08
2022-09-17T14:35:20.667Z,16.17
2022-09-17T14:38:12.701Z,16.24
2022-09-17T14:40:45.240Z,16.31
2022-09-17T14:43:19.113Z,16.30
2022-09-17T14:45:48.674Z,16.28
2022-09-17T14:48:19.582Z,16.25
2022-09-17T14:50:46.604Z,16.21
2022-09-17T14:53:18.860Z,16.16
2022-09-17T14:55:47.836Z,16.11
2022-09-17T14:58:36.718Z,16.04
2022-09-17T15:01:03.873Z,15.97
2022-09-17T15:03:30.666Z,15.93
2022-09-17T15:05:57.496Z,15.90
2022-09-17T15:08:27.917Z,15.84
2022-09-17T15:11:01.425Z,15.81
2022-09-17T15:13:42.444Z,15.76
2022-09-17T15:16:30.556Z,15.70
2022-09-17T15:19:01.711Z,15.62
2022-09-17T15:21:35.260Z,15.56
2022-09-17T15:24:13.506Z,15.48
2022-09-17T15:26:42.667Z,15.42
2022-09-17T15:29:13.640Z,15.41
2022-09-17T15:31:41.136Z,15.39
2022-09-17T15:34:11.320Z,15.39
2022-09-17T15:36:38.046Z,15.39
2022-09-17T15:39:31.438Z,15.41
2022-09-17T15:41:58.869Z,15.41
2022-09-17T15:44:31.185Z,15.42
2022-09-17T15:47:56.280Z,15.42
2022-09-17T15:50:28.440Z,15.35
2022-09-17T15:53:05.313Z,15.32
2022-09-17T15:55:41.242Z,15.30
2022-09-17T15:58:29.217Z,15.30
2022-09-17T16:01:15.885Z,15.30
2022-09-17T16:03:48.039Z,15.28
2022-09-17T16:06:20.898Z,15.28
2022-09-17T16:08:57.471Z,15.26
2022-09-17T16:11:30.037Z,15.21
2022-09-17T16:13:58.748Z,15.20
2022-09-17T16:16:36.177Z,15.20
2022-09-17T16:19:04.357Z,15.19
2022-09-17T16:21:32.125Z,15.18
2022-09-17T16:23:59.259Z,15.17
2022-09-17T16:26:29.282Z,15.17
2022-09-17T16:29:03.404Z,15.16
2022-09-17T16:31:30.319Z,15.13
2022-09-17T16:33:57.073Z,15.11
2022-09-17T16:36:24.124Z,15.10
2022-09-17T16:38:50.827Z,15.09
2022-09-17T16:41:17.504Z,15.09
2022-09-17T16:43:44.216Z,15.09
2022-09-17T16:46:11.312Z,15.08
2022-09-17T16:48:38.515Z,15.08
2022-09-17T16:51:11.892Z,15.05
2022-09-17T16:53:38.849Z,15.03
2022-09-17T16:56:13.997Z,15.03
2022-09-17T16:58:41.681Z,15.02
2022-09-17T17:01:13.874Z,15.01
2022-09-17T17:03:41.321Z,14.99
2022-09-17T17:06:19.742Z,14.97
2022-09-17T17:08:46.440Z,14.97
2022-09-17T17:11:13.445Z,14.96
2022-09-17T17:13:42.277Z,14.96
2022-09-17T17:16:10.825Z,14.95
2022-09-17T17:18:37.838Z,14.95
2022-09-17T17:21:06.208Z,14.94
2022-09-17T17:23:33.897Z,14.93
2022-09-17T17:26:00.755Z,14.92
2022-09-17T17:28:27.461Z,14.90
2022-09-17T17:30:54.268Z,14.89
2022-09-17T17:33:21.056Z,14.88
2022-09-17T17:35:47.756Z,14.87
2022-09-17T17:38:17.432Z,14.87
2022-09-17T17:40:45.183Z,14.89
2022-09-17T17:43:12.518Z,14.88
2022-09-17T17:45:39.937Z,14.87
2022-09-17T17:48:06.645Z,14.86
2022-09-17T17:50:33.498Z,14.86
2022-09-17T17:53:00.221Z,14.84
2022-09-17T17:55:26.976Z,14.81
2022-09-17T17:58:01.027Z,14.77
2022-09-17T18:00:28.490Z,14.74
2022-09-17T18:02:55.253Z,14.72
2022-09-17T18:05:22.022Z,14.71
2022-09-17T18:07:49.542Z,14.71
2022-09-17T18:10:16.526Z,14.71
2022-09-17T18:12:50.321Z,14.71
2022-09-17T18:15:17.266Z,14.69
2022-09-17T18:17:43.984Z,14.71
2022-09-17T18:20:10.958Z,14.72
2022-09-17T18:22:40.560Z,14.73
2022-09-17T18:25:07.698Z,14.73
2022-09-17T18:27:34.402Z,14.73
2022-09-17T18:30:01.137Z,14.73
2022-09-17T18:32:28.021Z,14.71
2022-09-17T18:34:54.734Z,14.71
2022-09-17T18:37:21.452Z,14.69
2022-09-17T18:40:04.428Z,14.69
2022-09-17T18:42:31.844Z,14.68
2022-09-17T18:44:58.557Z,14.67
2022-09-17T18:47:25.289Z,14.68
2022-09-17T18:49:51.985Z,14.68
2022-09-17T18:52:19.083Z,14.66
2022-09-17T18:54:45.942Z,14.67
2022-09-17T18:57:13.088Z,14.67
2022-09-17T18:59:40.077Z,14.64
2022-09-17T19:02:06.913Z,14.65
2022-09-17T19:04:33.663Z,14.63
2022-09-17T19:07:00.895Z,14.63
2022-09-17T19:09:27.712Z,14.63
2022-09-17T19:11:54.649Z,14.62
2022-09-17T19:14:21.350Z,14.64
2022-09-17T19:16:48.040Z,14.63
2022-09-17T19:19:14.766Z,14.62
2022-09-17T19:21:41.441Z,14.63
2022-09-17T19:24:08.388Z,14.64
2022-09-17T19:26:35.097Z,14.64
2022-09-17T19:29:01.957Z,14.64
2022-09-17T19:31:29.122Z,14.64
2022-09-17T19:33:56.517Z,14.66
2022-09-17T19:36:23.268Z,14.65
2022-09-17T19:38:49.979Z,14.66
2022-09-17T19:41:18.764Z,14.67
2022-09-17T19:43:46.122Z,14.68
2022-09-17T19:46:15.098Z,14.68
2022-09-17T19:48:49.577Z,14.68
2022-09-17T19:51:17.712Z,14.69
2022-09-17T19:53:44.786Z,14.69
2022-09-17T19:56:16.954Z,14.67
2022-09-17T19:58:43.650Z,14.67
2022-09-17T20:01:10.946Z,14.68
2022-09-17T20:03:41.458Z,14.68
2022-09-17T20:06:10.483Z,14.66
2022-09-17T20:08:42.522Z,14.68
2022-09-17T20:11:12.556Z,14.67
2022-09-17T20:13:39.245Z,14.68
2022-09-17T20:16:13.513Z,14.68
2022-09-17T20:18:40.322Z,14.65
2022-09-17T20:21:11.866Z,14.66
2022-09-17T20:23:38.702Z,14.65
2022-09-17T20:26:06.287Z,14.64
2022-09-17T20:28:33.374Z,14.63
2022-09-17T20:31:25.162Z,14.61
2022-09-17T20:33:57.576Z,14.61
2022-09-17T20:36:26.536Z,14.59
2022-09-17T20:41:42.137Z,14.62
2022-09-17T20:44:08.857Z,14.62
2022-09-17T20:46:35.641Z,14.62
2022-09-17T20:49:02.402Z,14.62
2022-09-17T20:51:30.096Z,14.61
2022-09-17T20:53:57.436Z,14.59
2022-09-17T20:56:27.331Z,14.56
2022-09-17T20:59:04.092Z,14.55
2022-09-17T21:01:34.372Z,14.55
2022-09-17T21:04:02.091Z,14.56
2022-09-17T21:06:34.822Z,14.59
2022-09-17T21:09:01.989Z,14.59
2022-09-17T21:11:29.803Z,14.59
2022-09-17T21:13:56.591Z,14.58
2022-09-17T21:16:23.398Z,14.58
2022-09-17T21:18:56.312Z,14.55
2022-09-17T21:21:23.061Z,14.55
2022-09-17T21:23:50.648Z,14.53
2022-09-17T21:26:19.346Z,14.51
2022-09-17T21:28:47.733Z,14.51
2022-09-17T21:31:20.233Z,14.49
2022-09-17T21:33:48.178Z,14.46
2022-09-17T21:36:17.164Z,14.43
2022-09-17T21:38:43.909Z,14.38
2022-09-17T21:41:15.364Z,14.31
2022-09-17T21:43:43.059Z,14.27
2022-09-17T21:46:11.961Z,14.25
2022-09-17T21:48:44.258Z,14.21
2022-09-17T21:51:12.853Z,14.18
2022-09-17T21:53:39.818Z,14.14
2022-09-17T21:56:06.421Z,14.11
2022-09-17T21:58:33.649Z,14.09
2022-09-17T22:01:14.275Z,14.08
2022-09-17T22:03:41.936Z,14.05
2022-09-17T22:06:12.762Z,14.03
2022-09-17T22:08:39.940Z,14.00
2022-09-17T22:11:09.492Z,13.95
2022-09-17T22:13:36.796Z,13.92
2022-09-17T22:16:05.019Z,13.91
2022-09-17T22:18:32.858Z,13.91
2022-09-17T22:20:59.761Z,13.88
2022-09-17T22:23:27.229Z,13.86
2022-09-17T22:26:01.980Z,13.87
2022-09-17T22:28:28.690Z,13.85
2022-09-17T22:30:55.480Z,13.86
2022-09-17T22:33:22.512Z,13.85
2022-09-17T22:35:49.201Z,13.82
2022-09-17T22:38:15.887Z,13.80
2022-09-17T22:40:42.592Z,13.79
2022-09-17T22:43:09.263Z,13.77
2022-09-17T22:45:35.941Z,13.78
2022-09-17T22:48:04.281Z,13.77
2022-09-17T22:50:30.977Z,13.78
2022-09-17T22:52:57.735Z,13.79
2022-09-17T22:55:24.478Z,13.78
2022-09-17T22:57:51.164Z,13.77
2022-09-17T23:00:17.956Z,13.78
2022-09-17T23:02:44.974Z,13.77
2022-09-17T23:05:11.739Z,13.76
2022-09-17T23:07:38.431Z,13.76
2022-09-17T23:10:05.374Z,13.75
2022-09-17T23:12:32.094Z,13.73
2022-09-17T23:14:58.829Z,13.76
2022-09-17T23:17:29.281Z,13.77
2022-09-17T23:19:56.200Z,13.78
2022-09-17T23:22:23.151Z,13.76
2022-09-17T23:24:49.963Z,13.76
2022-09-17T23:27:16.745Z,13.72
2022-09-17T23:29:43.437Z,13.70
2022-09-17T23:32:10.161Z,13.66
2022-09-17T23:34:37.690Z,13.62
2022-09-17T23:37:04.419Z,13.60
2022-09-17T23:39:31.129Z,13.58
2022-09-17T23:41:57.908Z,13.56
2022-09-17T23:44:24.613Z,13.53
2022-09-17T23:46:51.373Z,13.53
2022-09-17T23:49:18.171Z,13.53
2022-09-17T23:51:44.905Z,13.51
2022-09-17T23:54:11.684Z,13.50
2022-09-17T23:56:38.411Z,13.49
2022-09-17T23:59:05.198Z,13.47
